createdAt,value
2023-01-06T00:00:30.298Z,3.10
2023-01-06T00:02:57.557Z,8.48
2023-01-06T00:05:24.700Z,4.82
2023-01-06T00:07:52.227Z,4.00
2023-01-06T00:10:19.670Z,3.63
2023-01-06T00:12:47.152Z,2.60
2023-01-06T00:15:14.415Z,2.75
2023-01-06T00:17:41.646Z,3.10
2023-01-06T00:20:09.164Z,3.05
2023-01-06T00:22:36.336Z,2.80
2023-01-06T00:25:03.591Z,2.85
2023-01-06T00:27:31.769Z,2.15
2023-01-06T00:29:59.007Z,2.83
2023-01-06T00:32:26.197Z,6.13
2023-01-06T00:34:53.321Z,2.92
2023-01-06T00:37:20.516Z,4.57
2023-01-06T00:39:47.675Z,7.22
2023-01-06T00:42:14.906Z,2.75
2023-01-06T00:44:42.055Z,3.78
2023-01-06T00:47:09.756Z,4.07
2023-01-06T00:49:36.974Z,7.72
2023-01-06T00:52:04.464Z,7.68
2023-01-06T00:54:31.695Z,4.28
2023-01-06T00:56:58.966Z,5.18
2023-01-06T00:59:26.847Z,5.18
2023-01-06T01:01:55.201Z,3.30
2023-01-06T01:04:23.375Z,3.40
2023-01-06T01:06:50.788Z,2.83
2023-01-06T01:09:24.858Z,7.47
2023-01-06T01:12:10.435Z,2.83
2023-01-06T01:14:57.963Z,5.97
2023-01-06T01:17:29.004Z,3.90
2023-01-06T01:19:57.649Z,4.90
2023-01-06T01:22:25.155Z,2.90
2023-01-06T01:24:52.332Z,4.65
2023-01-06T01:27:19.588Z,2.33
2023-01-06T01:29:46.760Z,4.28
2023-01-06T01:32:13.919Z,2.97
2023-01-06T01:34:41.123Z,1.83
2023-01-06T01:37:08.316Z,2.20
2023-01-06T01:39:35.521Z,3.65
2023-01-06T01:42:02.679Z,4.20
2023-01-06T01:44:48.872Z,5.18
2023-01-06T01:47:17.644Z,8.15
2023-01-06T01:49:45.309Z,2.67
2023-01-06T01:52:12.648Z,3.90
2023-01-06T01:54:39.801Z,3.67
2023-01-06T01:57:17.074Z,5.65
2023-01-06T01:59:44.231Z,2.90
2023-01-06T02:02:11.506Z,2.97
2023-01-06T02:04:39.663Z,4.88
2023-01-06T02:07:06.947Z,4.40
2023-01-06T02:09:36.094Z,4.05
2023-01-06T02:12:03.291Z,5.03
2023-01-06T02:14:30.498Z,1.70
2023-01-06T02:17:16.154Z,5.22
2023-01-06T02:20:02.003Z,2.50
2023-01-06T02:22:44.500Z,3.80
2023-01-06T02:25:30.426Z,3.97
2023-01-06T02:28:12.811Z,3.15
2023-01-06T02:30:55.316Z,3.65
2023-01-06T02:33:25.171Z,3.50
2023-01-06T02:36:01.182Z,4.00
2023-01-06T02:39:03.982Z,2.95
2023-01-06T02:41:34.904Z,2.70
2023-01-06T02:44:07.308Z,4.45
2023-01-06T02:46:34.874Z,5.10
2023-01-06T02:49:11.164Z,4.45
2023-01-06T02:51:52.215Z,2.83
2023-01-06T02:54:28.580Z,4.03
2023-01-06T02:56:58.429Z,5.85
2023-01-06T02:59:30.797Z,7.20
2023-01-06T03:01:58.062Z,3.17
2023-01-06T03:04:29.827Z,4.80
2023-01-06T03:06:57.214Z,6.97
2023-01-06T03:09:25.205Z,6.90
2023-01-06T03:11:52.360Z,5.78
2023-01-06T03:14:24.550Z,6.18
2023-01-06T03:16:51.706Z,9.02
2023-01-06T03:19:18.913Z,4.60
2023-01-06T03:21:46.067Z,8.00
2023-01-06T03:24:13.364Z,2.65
2023-01-06T03:26:40.548Z,3.20
2023-01-06T03:29:08.150Z,2.92
2023-01-06T03:31:36.713Z,5.15
2023-01-06T03:34:07.905Z,3.33
2023-01-06T03:36:35.035Z,2.43
2023-01-06T03:39:21.089Z,2.83
2023-01-06T03:42:24.461Z,3.90
2023-01-06T03:45:18.324Z,5.05
2023-01-06T03:47:51.419Z,5.90
2023-01-06T03:50:26.539Z,3.90
2023-01-06T03:52:57.119Z,5.20
2023-01-06T03:55:24.322Z,6.85
2023-01-06T03:57:51.974Z,6.63
2023-01-06T04:00:29.425Z,3.45
2023-01-06T04:02:56.599Z,5.28
2023-01-06T04:05:24.501Z,3.90
2023-01-06T04:07:51.672Z,4.67
2023-01-06T04:10:19.794Z,5.10
2023-01-06T04:12:46.956Z,3.65
2023-01-06T04:15:21.088Z,2.20
2023-01-06T04:17:48.335Z,4.57
2023-01-06T04:20:16.609Z,3.42
2023-01-06T04:22:43.819Z,3.45
2023-01-06T04:25:11.015Z,6.25
2023-01-06T04:27:38.153Z,3.20
2023-01-06T04:30:05.959Z,3.10
2023-01-06T04:32:33.194Z,4.07
2023-01-06T04:35:00.374Z,4.47
2023-01-06T04:37:27.575Z,4.57
2023-01-06T04:39:54.876Z,6.10
2023-01-06T04:42:22.040Z,3.90
2023-01-06T04:44:49.216Z,5.97
2023-01-06T04:47:16.373Z,3.58
2023-01-06T04:49:43.712Z,4.13
2023-01-06T04:52:10.906Z,3.47
2023-01-06T04:54:38.061Z,4.28
2023-01-06T04:57:05.260Z,3.42
2023-01-06T04:59:32.538Z,4.22
2023-01-06T05:01:59.721Z,2.88
2023-01-06T05:04:28.451Z,5.78
2023-01-06T05:06:57.266Z,5.95
2023-01-06T05:09:24.475Z,6.85
2023-01-06T05:11:51.624Z,4.80
2023-01-06T05:14:21.311Z,6.97
2023-01-06T05:16:48.795Z,4.55
2023-01-06T05:19:15.991Z,7.28
2023-01-06T05:21:43.151Z,6.15
2023-01-06T05:24:10.608Z,6.88
2023-01-06T05:26:37.740Z,7.45
2023-01-06T05:29:04.904Z,4.88
2023-01-06T05:31:32.036Z,6.70
2023-01-06T05:33:59.193Z,6.03
2023-01-06T05:36:26.363Z,4.55
2023-01-06T05:38:53.782Z,8.02
2023-01-06T05:41:20.962Z,7.82
2023-01-06T05:43:48.228Z,7.60
2023-01-06T05:46:15.497Z,4.65
2023-01-06T05:48:42.852Z,7.53
2023-01-06T05:51:11.353Z,9.15
2023-01-06T05:53:39.479Z,8.13
2023-01-06T05:56:07.170Z,7.40
2023-01-06T05:58:34.651Z,6.88
2023-01-06T06:01:02.207Z,8.77
2023-01-06T06:03:29.560Z,8.77
2023-01-06T06:05:56.922Z,10.25
2023-01-06T06:08:24.181Z,7.95
2023-01-06T06:10:51.487Z,9.27
2023-01-06T06:13:18.813Z,11.48
2023-01-06T06:15:46.130Z,9.93
2023-01-06T06:18:13.442Z,10.60
2023-01-06T06:20:40.822Z,7.10
2023-01-06T06:23:08.113Z,7.93
2023-01-06T06:25:35.361Z,8.45
2023-01-06T06:28:02.560Z,9.18
2023-01-06T06:30:29.787Z,9.10
2023-01-06T06:32:56.955Z,10.02
2023-01-06T06:35:24.081Z,10.63
2023-01-06T06:37:53.969Z,8.15
2023-01-06T06:40:21.150Z,8.60
2023-01-06T06:42:51.658Z,10.30
2023-01-06T06:45:18.823Z,9.80
2023-01-06T06:47:45.964Z,11.13
2023-01-06T06:50:13.289Z,12.70
2023-01-06T06:52:41.147Z,10.77
2023-01-06T06:55:08.510Z,7.65
2023-01-06T06:57:35.650Z,14.48
2023-01-06T07:00:02.872Z,13.50
2023-01-06T07:02:30.024Z,11.18
2023-01-06T07:04:57.210Z,12.45
2023-01-06T07:07:24.444Z,11.70
2023-01-06T07:09:51.590Z,10.43
2023-01-06T07:12:18.764Z,10.57
2023-01-06T07:14:46.018Z,9.73
2023-01-06T07:17:13.181Z,12.07
2023-01-06T07:19:40.352Z,15.40
2023-01-06T07:22:07.500Z,15.07
2023-01-06T07:24:34.682Z,13.52
2023-01-06T07:27:01.854Z,17.95
2023-01-06T07:29:29.041Z,14.43
2023-01-06T07:31:56.212Z,14.07
2023-01-06T07:34:23.409Z,19.30
2023-01-06T07:36:50.570Z,20.88
2023-01-06T07:39:17.751Z,17.15
2023-01-06T07:41:45.046Z,15.40
2023-01-06T07:44:12.235Z,16.33
2023-01-06T07:46:39.385Z,19.35
2023-01-06T07:49:06.535Z,16.70
2023-01-06T07:51:33.700Z,17.45
2023-01-06T07:54:01.507Z,18.17
2023-01-06T07:56:28.681Z,16.85
2023-01-06T07:58:55.831Z,19.27
2023-01-06T08:01:23.147Z,16.85
2023-01-06T08:03:50.447Z,16.92
2023-01-06T08:06:17.624Z,19.40
2023-01-06T08:08:44.776Z,22.03
2023-01-06T08:11:14.273Z,24.40
2023-01-06T08:13:41.504Z,24.05
2023-01-06T08:16:09.229Z,22.00
2023-01-06T08:18:36.412Z,22.30
2023-01-06T08:21:03.871Z,19.10
2023-01-06T08:23:31.099Z,24.67
2023-01-06T08:26:11.656Z,23.45
2023-01-06T08:28:38.819Z,19.67
2023-01-06T08:31:09.060Z,18.75
2023-01-06T08:33:36.241Z,21.85
2023-01-06T08:36:03.738Z,20.40
2023-01-06T08:38:31.412Z,22.38
2023-01-06T08:40:59.745Z,22.20
2023-01-06T08:43:27.175Z,23.73
2023-01-06T08:45:54.524Z,22.20
2023-01-06T08:48:21.755Z,19.67
2023-01-06T08:50:49.028Z,20.65
2023-01-06T08:53:16.356Z,18.63
2023-01-06T08:55:43.630Z,23.52
2023-01-06T08:58:11.120Z,22.45
2023-01-06T09:00:38.892Z,27.75
2023-01-06T09:03:06.135Z,23.70
2023-01-06T09:05:33.627Z,21.10
2023-01-06T09:08:00.986Z,23.98
2023-01-06T09:10:28.328Z,24.13
2023-01-06T09:12:55.587Z,27.02
2023-01-06T09:15:22.764Z,26.60
2023-01-06T09:17:49.895Z,28.55
2023-01-06T09:20:17.137Z,33.53
2023-01-06T09:22:45.682Z,27.35
2023-01-06T09:25:12.962Z,31.00
2023-01-06T09:27:40.129Z,33.97
2023-01-06T09:30:08.221Z,37.90
2023-01-06T09:32:35.654Z,30.98
2023-01-06T09:35:02.847Z,35.73
2023-01-06T09:37:30.044Z,40.08
2023-01-06T09:39:57.269Z,33.58
2023-01-06T09:42:27.233Z,43.13
2023-01-06T09:44:57.237Z,35.50
2023-01-06T09:47:26.025Z,36.37
2023-01-06T09:49:57.317Z,37.55
2023-01-06T09:52:25.005Z,37.45
2023-01-06T09:54:59.700Z,31.75
2023-01-06T09:57:29.074Z,36.30
2023-01-06T09:59:57.665Z,33.05
2023-01-06T10:02:30.214Z,29.08
2023-01-06T10:04:57.425Z,31.67
2023-01-06T10:07:24.587Z,34.80
2023-01-06T10:09:55.103Z,37.67
2023-01-06T10:12:51.830Z,36.97
2023-01-06T10:15:27.823Z,32.70
2023-01-06T10:18:17.792Z,34.65
2023-01-06T10:20:57.216Z,34.47
2023-01-06T10:23:42.591Z,31.53
2023-01-06T10:26:13.862Z,31.55
2023-01-06T10:28:44.791Z,25.80
2023-01-06T10:31:13.311Z,23.13
2023-01-06T10:33:48.181Z,18.38
2023-01-06T10:36:16.075Z,17.10
2023-01-06T10:38:44.252Z,15.33
2023-01-06T10:41:41.386Z,13.73
2023-01-06T10:44:09.047Z,16.38
2023-01-06T10:46:36.391Z,14.88
2023-01-06T10:49:04.097Z,13.75
2023-01-06T10:51:35.557Z,13.77
2023-01-06T10:54:03.473Z,11.70
2023-01-06T10:56:30.770Z,8.80
2023-01-06T10:58:58.516Z,12.32
2023-01-06T11:01:26.411Z,11.32
2023-01-06T11:04:12.039Z,9.10
2023-01-06T11:06:45.954Z,8.13
2023-01-06T11:09:32.040Z,8.97
2023-01-06T11:12:00.591Z,9.93
2023-01-06T11:14:29.748Z,10.52
2023-01-06T11:16:59.816Z,10.02
2023-01-06T11:19:33.831Z,8.90
2023-01-06T11:22:01.060Z,8.75
2023-01-06T11:24:28.299Z,10.10
2023-01-06T11:27:02.325Z,8.02
2023-01-06T11:29:33.169Z,8.40
2023-01-06T11:32:04.449Z,8.25
2023-01-06T11:34:31.809Z,8.43
2023-01-06T11:36:59.086Z,6.97
2023-01-06T11:39:30.373Z,7.63
2023-01-06T11:41:57.799Z,6.88
2023-01-06T11:44:31.642Z,5.22
2023-01-06T11:47:03.322Z,6.90
2023-01-06T11:49:49.678Z,9.40
2023-01-06T11:52:19.893Z,9.70
2023-01-06T11:54:47.087Z,8.20
2023-01-06T11:57:17.549Z,14.73
2023-01-06T12:00:08.097Z,5.27
2023-01-06T12:02:53.957Z,6.80
2023-01-06T12:05:35.117Z,6.25
2023-01-06T12:08:02.261Z,4.55
2023-01-06T12:10:32.113Z,5.85
2023-01-06T12:12:59.310Z,5.97
2023-01-06T12:15:28.154Z,5.88
2023-01-06T12:17:56.306Z,5.35
2023-01-06T12:20:29.754Z,3.97
2023-01-06T12:22:58.658Z,4.47
2023-01-06T12:25:27.080Z,6.55
2023-01-06T12:27:55.553Z,5.30
2023-01-06T12:30:28.578Z,4.90
2023-01-06T12:32:57.080Z,6.05
2023-01-06T12:35:25.392Z,5.72
2023-01-06T12:37:54.685Z,6.43
2023-01-06T12:40:31.974Z,5.22
2023-01-06T12:43:18.520Z,4.75
2023-01-06T12:46:00.900Z,6.85
2023-01-06T12:48:28.122Z,5.43
2023-01-06T12:50:57.130Z,6.20
2023-01-06T12:53:31.951Z,4.35
2023-01-06T12:55:59.120Z,3.90
2023-01-06T12:58:29.303Z,3.92
2023-01-06T13:01:01.643Z,5.90
2023-01-06T13:03:45.083Z,4.63
2023-01-06T13:06:18.506Z,6.70
2023-01-06T13:09:00.869Z,4.93
2023-01-06T13:11:34.034Z,5.30
2023-01-06T13:14:04.111Z,4.82
2023-01-06T13:16:39.982Z,5.78
2023-01-06T13:19:10.349Z,4.50
2023-01-06T13:21:37.516Z,3.17
2023-01-06T13:24:07.902Z,3.60
2023-01-06T13:26:35.054Z,3.28
2023-01-06T13:29:03.008Z,2.65
2023-01-06T13:31:41.022Z,3.65
2023-01-06T13:34:08.370Z,5.93
2023-01-06T13:36:35.719Z,5.32
2023-01-06T13:39:13.558Z,3.40
2023-01-06T13:41:41.105Z,7.28
2023-01-06T13:44:14.285Z,6.95
2023-01-06T13:46:41.513Z,4.03
2023-01-06T13:49:08.748Z,4.47
2023-01-06T13:51:37.468Z,3.72
2023-01-06T13:54:04.682Z,5.13
2023-01-06T13:56:35.117Z,5.00
2023-01-06T13:59:21.734Z,5.93
2023-01-06T14:01:49.116Z,7.43
2023-01-06T14:04:36.795Z,3.70
2023-01-06T14:07:05.102Z,5.40
2023-01-06T14:09:32.271Z,4.28
2023-01-06T14:12:09.163Z,5.03
2023-01-06T14:14:38.480Z,4.57
2023-01-06T14:17:05.648Z,8.60
2023-01-06T14:19:34.610Z,11.10
2023-01-06T14:22:17.661Z,8.60
2023-01-06T14:24:49.197Z,16.33
2023-01-06T14:27:16.420Z,13.95
2023-01-06T14:29:43.801Z,40.75
2023-01-06T14:32:17.497Z,49.95
2023-01-06T14:34:51.866Z,13.82
2023-01-06T14:37:19.736Z,19.27
2023-01-06T14:39:50.653Z,22.02
2023-01-06T14:42:19.917Z,8.77
2023-01-06T14:44:53.531Z,4.82
2023-01-06T14:47:28.214Z,7.55
2023-01-06T14:49:56.862Z,8.90
2023-01-06T14:52:28.484Z,6.88
2023-01-06T14:54:55.664Z,6.45
2023-01-06T14:57:43.075Z,4.97
2023-01-06T15:00:16.942Z,8.02
2023-01-06T15:02:48.244Z,5.10
2023-01-06T15:05:34.459Z,5.05
2023-01-06T15:08:07.622Z,8.85
2023-01-06T15:10:38.579Z,6.05
2023-01-06T15:13:25.139Z,5.00
2023-01-06T15:15:56.197Z,6.65
2023-01-06T15:18:23.339Z,7.65
2023-01-06T15:20:50.496Z,5.17
2023-01-06T15:23:18.186Z,7.75
2023-01-06T15:25:46.869Z,12.02
2023-01-06T15:28:29.240Z,12.15
2023-01-06T15:30:56.535Z,12.43
2023-01-06T15:33:24.878Z,7.38
2023-01-06T15:35:54.516Z,8.40
2023-01-06T15:38:28.972Z,8.35
2023-01-06T15:40:56.275Z,9.00
2023-01-06T15:43:24.660Z,8.88
2023-01-06T15:45:57.961Z,6.53
2023-01-06T15:48:27.059Z,10.20
2023-01-06T15:50:55.827Z,13.00
2023-01-06T15:53:24.857Z,8.63
2023-01-06T15:55:52.545Z,6.25
2023-01-06T15:58:22.749Z,8.38
2023-01-06T16:00:50.919Z,9.23
2023-01-06T16:03:19.305Z,5.38
2023-01-06T16:05:51.068Z,10.27
2023-01-06T16:08:27.250Z,8.68
2023-01-06T16:11:40.007Z,6.97
2023-01-06T16:14:07.339Z,6.28
2023-01-06T16:16:35.963Z,7.22
2023-01-06T16:19:16.164Z,7.00
2023-01-06T16:21:44.190Z,11.60
2023-01-06T16:24:21.321Z,7.20
2023-01-06T16:26:53.070Z,9.75
2023-01-06T16:29:29.603Z,6.33
2023-01-06T16:31:58.366Z,2.97
2023-01-06T16:34:28.181Z,4.38
2023-01-06T16:36:56.452Z,7.32
2023-01-06T16:39:23.666Z,7.72
2023-01-06T16:42:00.212Z,7.97
2023-01-06T16:44:29.568Z,5.88
2023-01-06T16:46:57.080Z,7.68
2023-01-06T16:49:24.411Z,9.10
2023-01-06T16:51:51.597Z,11.57
2023-01-06T16:54:18.748Z,9.20
2023-01-06T16:56:46.268Z,5.60
2023-01-06T16:59:16.270Z,9.75
2023-01-06T17:01:44.335Z,5.82
2023-01-06T17:04:12.337Z,5.93
2023-01-06T17:06:39.920Z,9.50
2023-01-06T17:09:20.130Z,7.15
2023-01-06T17:11:47.933Z,8.55
2023-01-06T17:14:15.915Z,4.07
2023-01-06T17:16:43.172Z,9.60
2023-01-06T17:19:19.638Z,6.15
2023-01-06T17:21:47.395Z,6.43
2023-01-06T17:24:24.058Z,7.43
2023-01-06T17:26:52.682Z,8.02
2023-01-06T17:29:20.816Z,12.90
2023-01-06T17:31:51.550Z,5.75
2023-01-06T17:34:18.839Z,5.38
2023-01-06T17:36:46.968Z,7.78
2023-01-06T17:39:15.318Z,11.45
2023-01-06T17:41:42.538Z,12.32
2023-01-06T17:44:19.943Z,10.65
2023-01-06T17:46:47.328Z,7.25
2023-01-06T17:49:20.654Z,13.68
2023-01-06T17:51:47.808Z,9.15
2023-01-06T17:54:34.979Z,9.23
2023-01-06T17:57:02.364Z,10.38
2023-01-06T17:59:29.553Z,10.23
2023-01-06T18:01:56.778Z,10.90
2023-01-06T18:04:23.959Z,7.40
2023-01-06T18:06:52.915Z,9.23
2023-01-06T18:09:23.271Z,8.30
2023-01-06T18:11:51.026Z,23.30
2023-01-06T18:14:19.186Z,9.90
2023-01-06T18:16:47.286Z,14.73
2023-01-06T18:19:31.574Z,14.63
2023-01-06T18:21:58.840Z,10.50
2023-01-06T18:24:47.056Z,12.82
2023-01-06T18:27:18.338Z,10.75
2023-01-06T18:29:45.696Z,11.60
2023-01-06T18:32:21.720Z,9.35
2023-01-06T18:34:55.544Z,8.57
2023-01-06T18:37:24.308Z,5.53
2023-01-06T18:39:52.079Z,8.80
2023-01-06T18:42:25.429Z,6.10
2023-01-06T18:45:02.743Z,9.20
2023-01-06T18:47:30.270Z,8.13
2023-01-06T18:50:18.143Z,11.07
2023-01-06T18:52:46.542Z,6.70
2023-01-06T18:55:24.333Z,6.80
2023-01-06T18:57:56.473Z,7.60
2023-01-06T19:00:27.917Z,5.60
2023-01-06T19:02:55.104Z,13.88
2023-01-06T19:05:22.359Z,6.37
2023-01-06T19:07:49.564Z,6.13
2023-01-06T19:10:27.815Z,5.82
2023-01-06T19:12:56.040Z,5.65
2023-01-06T19:15:23.927Z,5.18
2023-01-06T19:17:51.914Z,5.95
2023-01-06T19:20:26.899Z,6.97
2023-01-06T19:22:55.314Z,6.97
2023-01-06T19:25:40.499Z,4.35
2023-01-06T19:28:16.707Z,5.88
2023-01-06T19:30:43.911Z,4.13
2023-01-06T19:33:16.855Z,4.18
2023-01-06T19:35:44.071Z,4.63
2023-01-06T19:38:37.696Z,3.90
2023-01-06T19:41:09.108Z,7.63
2023-01-06T19:43:36.421Z,5.65
2023-01-06T19:46:23.907Z,5.18
2023-01-06T19:48:52.457Z,4.22
2023-01-06T19:51:23.677Z,3.25
2023-01-06T19:53:51.513Z,5.60
2023-01-06T19:56:22.015Z,7.43
2023-01-06T19:58:59.309Z,5.57
2023-01-06T20:01:26.626Z,5.13
2023-01-06T20:03:54.635Z,4.18
2023-01-06T20:06:21.882Z,3.60
2023-01-06T20:08:52.354Z,3.40
2023-01-06T20:11:20.363Z,5.22
2023-01-06T20:13:47.746Z,5.32
2023-01-06T20:16:15.030Z,7.47
2023-01-06T20:18:42.311Z,8.77
2023-01-06T20:21:09.517Z,7.63
2023-01-06T20:23:36.660Z,6.28
2023-01-06T20:26:03.860Z,7.33
2023-01-06T20:28:31.051Z,5.68
2023-01-06T20:30:58.215Z,16.50
2023-01-06T20:33:25.390Z,13.35
2023-01-06T20:35:52.659Z,6.93
2023-01-06T20:38:19.869Z,7.75
2023-01-06T20:40:47.040Z,5.93
2023-01-06T20:43:14.258Z,5.90
2023-01-06T20:45:41.511Z,16.30
2023-01-06T20:48:08.877Z,14.40
2023-01-06T20:50:36.101Z,15.45
2023-01-06T20:53:03.243Z,31.93
2023-01-06T20:55:30.419Z,10.30
2023-01-06T20:57:57.578Z,39.55
2023-01-06T21:00:24.766Z,7.63
2023-01-06T21:02:51.983Z,14.93
2023-01-06T21:05:20.975Z,16.17
2023-01-06T21:07:48.557Z,9.33
2023-01-06T21:10:15.751Z,8.48
2023-01-06T21:12:43.116Z,7.95
2023-01-06T21:15:10.929Z,7.93
2023-01-06T21:17:38.071Z,6.38
2023-01-06T21:20:06.195Z,7.75
2023-01-06T21:22:33.405Z,4.63
2023-01-06T21:25:00.623Z,7.03
2023-01-06T21:27:27.779Z,2.72
2023-01-06T21:29:55.007Z,5.00
2023-01-06T21:32:22.188Z,4.15
2023-01-06T21:34:49.969Z,4.35
2023-01-06T21:37:17.845Z,5.80
2023-01-06T21:39:47.792Z,6.78
2023-01-06T21:42:33.686Z,6.00
2023-01-06T21:45:00.870Z,5.30
2023-01-06T21:47:28.023Z,5.80
2023-01-06T21:49:55.255Z,4.10
2023-01-06T21:52:22.397Z,5.93
2023-01-06T21:54:49.783Z,6.07
2023-01-06T21:57:16.923Z,5.22
2023-01-06T21:59:44.275Z,4.68
2023-01-06T22:02:11.668Z,2.15
2023-01-06T22:04:38.970Z,5.77
2023-01-06T22:07:09.002Z,3.42
2023-01-06T22:09:36.333Z,7.78
2023-01-06T22:12:03.492Z,5.88
2023-01-06T22:14:31.107Z,3.60
2023-01-06T22:17:00.341Z,4.22
2023-01-06T22:19:28.107Z,6.32
2023-01-06T22:21:55.295Z,6.03
2023-01-06T22:24:22.453Z,4.80
2023-01-06T22:26:49.597Z,3.80
2023-01-06T22:29:16.765Z,3.13
2023-01-06T22:31:43.887Z,3.53
2023-01-06T22:34:11.220Z,2.72
2023-01-06T22:36:38.388Z,4.03
2023-01-06T22:39:05.688Z,3.22
2023-01-06T22:41:32.857Z,5.13
2023-01-06T22:44:00.035Z,7.53
2023-01-06T22:46:27.544Z,2.70
2023-01-06T22:48:54.725Z,2.65
2023-01-06T22:51:21.924Z,6.25
2023-01-06T22:53:49.118Z,5.43
2023-01-06T22:56:16.266Z,3.90
2023-01-06T22:58:43.812Z,3.60
2023-01-06T23:01:11.137Z,6.97
2023-01-06T23:03:38.383Z,3.35
2023-01-06T23:06:06.605Z,6.78
2023-01-06T23:08:36.610Z,6.43
2023-01-06T23:11:07.549Z,5.47
2023-01-06T23:13:35.029Z,5.88
2023-01-06T23:16:22.294Z,4.23
2023-01-06T23:18:49.601Z,6.32
2023-01-06T23:21:19.279Z,4.32
2023-01-06T23:23:47.749Z,5.20
2023-01-06T23:26:17.789Z,7.80
2023-01-06T23:28:45.138Z,5.53
2023-01-06T23:31:13.478Z,4.40
2023-01-06T23:33:41.163Z,5.45
2023-01-06T23:36:08.734Z,4.70
2023-01-06T23:38:36.094Z,4.78
2023-01-06T23:41:09.474Z,3.78
2023-01-06T23:43:36.806Z,3.72
2023-01-06T23:46:04.948Z,6.28
2023-01-06T23:48:32.610Z,4.20
2023-01-06T23:50:59.963Z,3.95
2023-01-06T23:53:27.354Z,5.27
2023-01-06T23:55:58.062Z,6.82
2023-01-06T23:58:25.344Z,6.82
